createdAt,value
2017-12-04T00:14:41.877Z,33.72
2017-12-04T00:17:10.358Z,30.88
2017-12-04T00:19:38.871Z,36.20
2017-12-04T00:34:56.319Z,32.08
2017-12-04T00:37:24.000Z,35.88
2017-12-04T00:39:51.803Z,31.58
2017-12-04T00:42:19.514Z,28.62
2017-12-04T00:57:37.239Z,25.52
2017-12-04T01:00:05.202Z,27.52
2017-12-04T01:02:36.163Z,32.35
2017-12-04T01:05:04.054Z,28.92
2017-12-04T01:07:32.626Z,30.73
2017-12-04T01:10:00.388Z,31.40
2017-12-04T01:12:31.963Z,28.98
2017-12-04T01:24:39.921Z,26.25
2017-12-04T01:27:08.192Z,31.00
2017-12-04T01:29:36.119Z,30.27
2017-12-04T01:32:04.349Z,28.70
2017-12-04T01:34:32.185Z,25.88
2017-12-04T01:46:39.921Z,23.42
2017-12-04T01:49:07.346Z,26.50
2017-12-04T01:51:35.246Z,31.87
2017-12-04T01:54:03.764Z,32.53
2017-12-04T01:56:31.519Z,28.12
2017-12-04T01:58:59.194Z,35.45
2017-12-04T02:01:26.900Z,29.35
2017-12-04T02:03:55.067Z,31.90
2017-12-04T02:06:25.276Z,26.87
2017-12-04T02:18:33.599Z,28.40
2017-12-04T02:33:51.311Z,28.25
2017-12-04T02:46:00.052Z,24.42
2017-12-04T02:48:28.323Z,25.62
2017-12-04T02:50:57.231Z,29.77
2017-12-04T03:03:05.784Z,23.87
2017-12-04T03:05:33.556Z,28.25
2017-12-04T03:08:01.057Z,28.40
2017-12-04T03:10:28.830Z,33.40
2017-12-04T03:12:56.552Z,23.40
2017-12-04T03:15:24.090Z,33.05
2017-12-04T03:17:51.615Z,31.48
2017-12-04T03:20:19.335Z,30.25
2017-12-04T03:22:48.166Z,26.15
2017-12-04T03:38:09.932Z,22.95
2017-12-04T03:40:37.396Z,30.75
2017-12-04T03:43:06.800Z,34.40
2017-12-04T03:45:34.644Z,28.23
2017-12-04T03:48:02.884Z,32.13
2017-12-04T03:50:32.359Z,32.15
2017-12-04T04:02:39.912Z,29.73
2017-12-04T04:05:07.395Z,26.65
2017-12-04T04:07:35.624Z,30.15
2017-12-04T04:10:03.953Z,31.67
2017-12-04T04:12:32.510Z,32.47
2017-12-04T04:15:04.873Z,35.10
2017-12-04T04:17:32.591Z,33.22
2017-12-04T04:20:00.444Z,34.35
2017-12-04T04:22:31.900Z,26.08
2017-12-04T04:24:59.637Z,33.22
2017-12-04T04:27:28.793Z,29.87
2017-12-04T04:39:37.467Z,30.95
2017-12-04T04:51:44.927Z,28.83
2017-12-04T04:54:16.439Z,35.33
2017-12-04T04:56:43.968Z,29.23
2017-12-04T04:59:11.490Z,34.08
2017-12-04T05:14:29.182Z,26.42
2017-12-04T05:16:56.888Z,36.40
2017-12-04T05:32:14.376Z,25.88
2017-12-04T05:34:41.852Z,34.47
2017-12-04T05:37:15.461Z,26.58
2017-12-04T05:52:33.865Z,31.58
2017-12-04T06:04:41.323Z,28.38
2017-12-04T06:19:59.570Z,30.85
2017-12-04T06:22:28.128Z,37.28
2017-12-04T06:34:36.022Z,35.08
2017-12-04T06:37:04.048Z,29.95
2017-12-04T06:39:31.777Z,22.90
2017-12-04T06:51:39.971Z,36.65
2017-12-04T06:54:08.221Z,28.95
2017-12-04T07:09:25.924Z,26.08
2017-12-04T07:11:53.425Z,29.15
2017-12-04T07:14:28.847Z,26.65
2017-12-04T07:16:57.584Z,34.45
2017-12-04T07:19:26.288Z,31.02
2017-12-04T07:34:13.022Z,23.30
2017-12-04T07:46:25.516Z,28.20
2017-12-04T07:49:00.406Z,25.17
2017-12-04T07:51:28.692Z,24.92
2017-12-04T07:53:57.194Z,24.67
2017-12-04T07:56:26.705Z,24.27
2017-12-04T07:58:59.718Z,27.85
2017-12-04T08:01:31.276Z,19.62
2017-12-04T08:13:39.232Z,22.90
2017-12-04T08:25:47.501Z,25.05
2017-12-04T08:28:15.296Z,19.70
2017-12-04T08:30:43.520Z,20.85
2017-12-04T08:33:11.044Z,23.65
2017-12-04T08:35:42.308Z,19.62
2017-12-04T08:51:00.036Z,22.95
2017-12-04T08:53:36.341Z,23.12
2017-12-04T08:56:07.764Z,21.55
2017-12-04T08:58:36.016Z,21.67
2017-12-04T09:01:03.481Z,25.67
2017-12-04T09:03:30.985Z,23.77
2017-12-04T09:05:58.792Z,21.05
2017-12-04T09:08:27.780Z,25.60
2017-12-04T09:10:55.455Z,29.45
2017-12-04T09:13:23.144Z,22.87
2017-12-04T09:15:54.947Z,30.48
2017-12-04T09:18:22.415Z,20.98
2017-12-04T09:20:50.695Z,21.45
2017-12-04T09:23:18.427Z,25.62
2017-12-04T09:25:46.093Z,26.85
2017-12-04T09:28:13.774Z,24.35
2017-12-04T09:30:41.548Z,26.67
2017-12-04T09:33:09.023Z,24.70
2017-12-04T09:35:36.503Z,24.27
2017-12-04T09:38:03.960Z,22.73
2017-12-04T09:40:32.163Z,23.50
2017-12-04T09:42:59.948Z,25.33
2017-12-04T09:45:31.773Z,24.67
2017-12-04T09:57:39.232Z,25.58
2017-12-04T10:00:06.941Z,25.98
2017-12-04T10:12:14.397Z,24.17
2017-12-04T10:24:24.187Z,19.55
2017-12-04T10:26:52.859Z,28.00
2017-12-04T10:29:21.160Z,23.20
2017-12-04T10:31:53.668Z,29.52
2017-12-04T10:34:21.628Z,26.52
2017-12-04T10:36:49.749Z,22.42
2017-12-04T10:39:18.287Z,24.17
2017-12-04T10:41:45.758Z,24.58
2017-12-04T10:44:13.303Z,26.23
2017-12-04T10:46:41.563Z,23.92
2017-12-04T10:49:09.091Z,23.15
2017-12-04T10:51:36.529Z,25.60
2017-12-04T10:54:04.760Z,24.17
2017-12-04T10:56:33.532Z,17.87
2017-12-04T10:59:01.816Z,26.60
2017-12-04T11:01:29.298Z,26.45
2017-12-04T11:13:37.628Z,19.58
2017-12-04T11:16:05.123Z,23.62
2017-12-04T11:18:32.807Z,19.45
2017-12-04T11:30:41.745Z,17.77
2017-12-04T11:33:14.284Z,18.80
2017-12-04T11:35:41.800Z,22.67
2017-12-04T11:38:09.328Z,25.37
2017-12-04T11:40:37.493Z,19.17
2017-12-04T11:43:05.005Z,19.20
2017-12-04T11:45:32.671Z,22.02
2017-12-04T11:57:40.334Z,17.77
2017-12-04T12:00:11.358Z,18.67
2017-12-04T12:02:39.478Z,18.60
2017-12-04T12:05:07.014Z,22.00
2017-12-04T12:20:25.430Z,21.05
2017-12-04T12:22:53.128Z,23.35
2017-12-04T12:38:10.627Z,15.77
2017-12-04T12:40:41.484Z,15.25
2017-12-04T12:43:09.639Z,19.52
2017-12-04T12:45:37.504Z,17.27
2017-12-04T12:48:05.124Z,20.00
2017-12-04T12:50:36.374Z,13.90
2017-12-04T13:02:43.868Z,20.83
2017-12-04T13:05:11.329Z,22.77
2017-12-04T13:07:38.858Z,15.05
2017-12-04T13:23:02.332Z,16.35
2017-12-04T13:25:29.829Z,17.98
2017-12-04T13:37:38.252Z,14.38
2017-12-04T13:40:05.893Z,16.98
2017-12-04T13:52:14.163Z,17.73
2017-12-04T13:54:42.762Z,17.05
2017-12-04T13:57:11.074Z,15.07
2017-12-04T13:59:38.896Z,17.85
2017-12-04T14:02:06.554Z,16.52
2017-12-04T14:04:34.621Z,17.42
2017-12-04T14:07:02.843Z,17.40
2017-12-04T14:09:30.662Z,23.12
2017-12-04T14:11:58.231Z,24.17
2017-12-04T14:14:25.666Z,18.25
2017-12-04T14:16:53.226Z,17.90
2017-12-04T14:29:00.677Z,20.35
2017-12-04T14:31:28.165Z,16.45
2017-12-04T14:33:55.882Z,16.67
2017-12-04T14:36:23.902Z,14.48
2017-12-04T14:38:52.863Z,17.12
2017-12-04T14:41:22.344Z,15.80
2017-12-04T14:53:34.726Z,15.77
2017-12-04T14:56:02.945Z,15.90
2017-12-04T14:58:30.648Z,14.38
2017-12-04T15:00:59.464Z,14.32
2017-12-04T15:03:27.191Z,13.93
2017-12-04T15:15:35.001Z,15.15
2017-12-04T15:18:03.714Z,14.07
2017-12-04T15:20:40.138Z,14.07
2017-12-04T15:23:07.868Z,14.93
2017-12-04T15:25:35.556Z,16.30
2017-12-04T15:28:03.992Z,16.08
2017-12-04T15:40:12.733Z,15.00
2017-12-04T15:52:20.206Z,15.45
2017-12-04T16:07:43.256Z,11.95
2017-12-04T16:23:02.391Z,11.50
2017-12-04T16:38:23.956Z,11.32
2017-12-04T16:40:51.452Z,12.18
2017-12-04T16:43:19.526Z,8.07
2017-12-04T16:45:47.019Z,12.77
2017-12-04T16:48:14.570Z,11.05
2017-12-04T16:50:42.310Z,13.82
2017-12-04T16:53:09.936Z,11.73
2017-12-04T17:08:31.521Z,14.00
2017-12-04T17:10:59.292Z,12.95
2017-12-04T17:13:26.811Z,13.90
2017-12-04T17:15:54.918Z,15.85
2017-12-04T17:18:22.627Z,15.57
2017-12-04T17:20:50.860Z,15.00
2017-12-04T17:23:18.381Z,12.32
2017-12-04T17:25:45.835Z,12.05
2017-12-04T17:28:21.262Z,14.87
2017-12-04T17:30:48.748Z,12.82
2017-12-04T17:33:16.925Z,16.10
2017-12-04T17:35:48.966Z,14.70
2017-12-04T17:38:16.684Z,14.35
2017-12-04T17:40:45.759Z,13.55
2017-12-04T17:43:22.728Z,11.35
2017-12-04T17:55:30.480Z,11.70
2017-12-04T18:07:37.998Z,12.77
2017-12-04T18:22:55.517Z,12.95
2017-12-04T18:25:22.993Z,13.90
2017-12-04T18:27:50.500Z,11.60
2017-12-04T18:30:19.241Z,15.65
2017-12-04T18:32:47.492Z,15.27
2017-12-04T18:35:16.635Z,15.98
2017-12-04T18:37:44.147Z,15.60
2017-12-04T18:40:12.312Z,14.82
2017-12-04T18:42:40.127Z,12.70
2017-12-04T18:45:07.712Z,19.67
2017-12-04T18:47:35.193Z,18.12
2017-12-04T18:50:03.187Z,20.10
2017-12-04T18:52:32.416Z,16.20
2017-12-04T19:04:40.011Z,18.37
2017-12-04T19:07:07.534Z,14.45
2017-12-04T19:09:35.006Z,20.73
2017-12-04T19:12:02.697Z,18.08
2017-12-04T19:14:30.981Z,16.10
2017-12-04T19:29:48.510Z,17.58
2017-12-04T19:32:16.190Z,20.98
2017-12-04T19:47:35.187Z,18.90
2017-12-04T19:59:43.934Z,19.60
2017-12-04T20:02:12.709Z,17.55
2017-12-04T20:04:40.252Z,21.00
2017-12-04T20:19:58.212Z,20.37
2017-12-04T20:22:25.769Z,19.30
2017-12-04T20:24:53.325Z,24.65
2017-12-04T20:27:21.768Z,19.75
2017-12-04T20:29:50.589Z,27.58
2017-12-04T20:32:19.127Z,27.37
2017-12-04T20:47:40.899Z,21.85
2017-12-04T20:50:08.506Z,21.10
2017-12-04T20:52:37.055Z,29.25
2017-12-04T20:55:05.024Z,23.95
2017-12-04T20:57:32.947Z,24.42
2017-12-04T21:00:01.271Z,23.90
2017-12-04T21:02:29.818Z,23.70
2017-12-04T21:04:57.292Z,24.63
2017-12-04T21:07:24.898Z,26.92
2017-12-04T21:10:04.536Z,23.60
2017-12-04T21:12:33.656Z,30.30
2017-12-04T21:15:13.271Z,25.17
2017-12-04T21:17:40.805Z,23.87
2017-12-04T21:29:48.590Z,25.52
2017-12-04T21:32:16.814Z,27.92
2017-12-04T21:34:48.373Z,26.67
2017-12-04T21:37:16.795Z,23.95
2017-12-04T21:49:26.094Z,26.92
2017-12-04T22:01:38.424Z,20.55
2017-12-04T22:04:06.755Z,26.08
2017-12-04T22:06:34.291Z,28.92
2017-12-04T22:09:02.138Z,22.75
2017-12-04T22:11:30.664Z,22.10
2017-12-04T22:13:58.404Z,22.35
2017-12-04T22:16:26.675Z,28.65
2017-12-04T22:18:58.147Z,26.83
2017-12-04T22:31:05.717Z,19.35
2017-12-04T22:33:33.216Z,23.60
2017-12-04T22:36:01.015Z,21.92
2017-12-04T22:38:28.511Z,26.73
2017-12-04T22:40:56.551Z,24.37
2017-12-04T22:43:25.090Z,25.95
2017-12-04T22:55:32.560Z,26.30
2017-12-04T22:58:04.152Z,24.05
2017-12-04T23:00:31.866Z,24.85
2017-12-04T23:02:59.697Z,23.12
2017-12-04T23:05:28.388Z,21.87
2017-12-04T23:07:56.045Z,29.40
2017-12-04T23:20:04.357Z,26.15
2017-12-04T23:22:32.963Z,30.40
2017-12-04T23:25:01.072Z,25.62
2017-12-04T23:27:31.144Z,23.38
2017-12-04T23:30:02.871Z,26.00
2017-12-04T23:32:34.867Z,25.83
2017-12-04T23:35:02.367Z,22.87
2017-12-04T23:37:30.901Z,25.65
2017-12-04T23:39:59.004Z,25.08
2017-12-04T23:42:27.679Z,22.37
2017-12-04T23:44:55.761Z,31.95
2017-12-04T23:57:03.515Z,30.85
2017-12-04T23:59:32.552Z,22.30
